sensor_id;sensor_type;location;lat;lon;timestamp;P1;durP1;ratioP1;P2;durP2;ratioP2
40052;SDS011;25758;48.200;16.338;2024-01-11T00:01:14;32.67;;;17.07;;
40052;SDS011;25758;48.200;16.338;2024-01-11T00:03:39;35.93;;;18.70;;
40052;SDS011;25758;48.200;16.338;2024-01-11T00:06:05;42.50;;;18.07;;
40052;SDS011;25758;48.200;16.338;2024-01-11T00:08:30;47.93;;;23.07;;
40052;SDS011;25758;48.200;16.338;2024-01-11T00:10:56;36.50;;;18.70;;
40052;SDS011;25758;48.200;16.338;2024-01-11T00:13:22;39.40;;;18.77;;
40052;SDS011;25758;48.200;16.338;2024-01-11T00:15:48;35.90;;;17.10;;
40052;SDS011;25758;48.200;16.338;2024-01-11T00:18:14;40.00;;;18.20;;
40052;SDS011;25758;48.200;16.338;2024-01-11T00:20:39;38.13;;;18.43;;
40052;SDS011;25758;48.200;16.338;2024-01-11T00:23:05;38.87;;;18.97;;
40052;SDS011;25758;48.200;16.338;2024-01-11T00:25:31;45.07;;;21.13;;
40052;SDS011;25758;48.200;16.338;2024-01-11T00:27:56;45.43;;;19.10;;
40052;SDS011;25758;48.200;16.338;2024-01-11T00:30:22;40.00;;;19.23;;
40052;SDS011;25758;48.200;16.338;2024-01-11T00:32:48;35.87;;;18.60;;
40052;SDS011;25758;48.200;16.338;2024-01-11T00:35:14;37.70;;;18.20;;
40052;SDS011;25758;48.200;16.338;2024-01-11T00:37:40;36.10;;;17.77;;
40052;SDS011;25758;48.200;16.338;2024-01-11T00:40:06;38.63;;;19.60;;
40052;SDS011;25758;48.200;16.338;2024-01-11T00:42:32;40.93;;;20.23;;
40052;SDS011;25758;48.200;16.338;2024-01-11T00:44:59;42.00;;;19.33;;
40052;SDS011;25758;48.200;16.338;2024-01-11T00:47:25;40.50;;;18.77;;
40052;SDS011;25758;48.200;16.338;2024-01-11T00:49:51;38.87;;;18.20;;
40052;SDS011;25758;48.200;16.338;2024-01-11T00:52:17;43.40;;;18.60;;
40052;SDS011;25758;48.200;16.338;2024-01-11T00:54:43;35.40;;;17.70;;
40052;SDS011;25758;48.200;16.338;2024-01-11T00:57:08;38.77;;;17.93;;
40052;SDS011;25758;48.200;16.338;2024-01-11T00:59:34;37.13;;;18.20;;
40052;SDS011;25758;48.200;16.338;2024-01-11T01:02:00;41.43;;;18.83;;
40052;SDS011;25758;48.200;16.338;2024-01-11T01:04:26;37.57;;;18.17;;
40052;SDS011;25758;48.200;16.338;2024-01-11T01:06:51;38.93;;;18.40;;
40052;SDS011;25758;48.200;16.338;2024-01-11T01:09:17;41.37;;;18.23;;
40052;SDS011;25758;48.200;16.338;2024-01-11T01:11:42;32.03;;;16.20;;
40052;SDS011;25758;48.200;16.338;2024-01-11T01:14:08;39.93;;;18.47;;
40052;SDS011;25758;48.200;16.338;2024-01-11T01:16:33;39.93;;;18.20;;
40052;SDS011;25758;48.200;16.338;2024-01-11T01:18:59;36.20;;;19.00;;
40052;SDS011;25758;48.200;16.338;2024-01-11T01:21:25;39.13;;;19.27;;
40052;SDS011;25758;48.200;16.338;2024-01-11T01:23:51;41.33;;;18.23;;
40052;SDS011;25758;48.200;16.338;2024-01-11T01:26:16;40.17;;;18.40;;
40052;SDS011;25758;48.200;16.338;2024-01-11T01:28:42;40.37;;;18.47;;
40052;SDS011;25758;48.200;16.338;2024-01-11T01:31:08;33.40;;;17.67;;
40052;SDS011;25758;48.200;16.338;2024-01-11T01:33:35;35.67;;;19.07;;
40052;SDS011;25758;48.200;16.338;2024-01-11T01:36:01;37.57;;;17.27;;
40052;SDS011;25758;48.200;16.338;2024-01-11T01:38:26;37.53;;;18.77;;
40052;SDS011;25758;48.200;16.338;2024-01-11T01:40:52;39.87;;;19.40;;
40052;SDS011;25758;48.200;16.338;2024-01-11T01:43:18;38.43;;;18.37;;
40052;SDS011;25758;48.200;16.338;2024-01-11T01:45:43;38.83;;;18.70;;
40052;SDS011;25758;48.200;16.338;2024-01-11T01:48:09;37.70;;;18.67;;
40052;SDS011;25758;48.200;16.338;2024-01-11T01:50:35;33.87;;;17.53;;
40052;SDS011;25758;48.200;16.338;2024-01-11T01:53:00;40.37;;;19.73;;
40052;SDS011;25758;48.200;16.338;2024-01-11T01:55:27;40.47;;;19.50;;
40052;SDS011;25758;48.200;16.338;2024-01-11T01:57:53;39.03;;;19.33;;
40052;SDS011;25758;48.200;16.338;2024-01-11T02:00:20;43.13;;;19.57;;
40052;SDS011;25758;48.200;16.338;2024-01-11T02:02:46;40.20;;;19.93;;
40052;SDS011;25758;48.200;16.338;2024-01-11T02:05:16;39.93;;;19.33;;
40052;SDS011;25758;48.200;16.338;2024-01-11T02:07:42;38.43;;;18.27;;
40052;SDS011;25758;48.200;16.338;2024-01-11T02:10:09;44.97;;;19.43;;
40052;SDS011;25758;48.200;16.338;2024-01-11T02:12:35;38.73;;;18.43;;
40052;SDS011;25758;48.200;16.338;2024-01-11T02:15:02;37.37;;;19.67;;
40052;SDS011;25758;48.200;16.338;2024-01-11T02:17:29;38.40;;;19.30;;
40052;SDS011;25758;48.200;16.338;2024-01-11T02:19:57;42.47;;;18.97;;
40052;SDS011;25758;48.200;16.338;2024-01-11T02:22:34;36.33;;;17.17;;
40052;SDS011;25758;48.200;16.338;2024-01-11T02:25:02;42.90;;;19.50;;
40052;SDS011;25758;48.200;16.338;2024-01-11T02:27:28;36.73;;;19.17;;
40052;SDS011;25758;48.200;16.338;2024-01-11T02:29:54;36.10;;;18.77;;
40052;SDS011;25758;48.200;16.338;2024-01-11T02:32:19;41.17;;;17.20;;
40052;SDS011;25758;48.200;16.338;2024-01-11T02:34:45;40.03;;;17.67;;
40052;SDS011;25758;48.200;16.338;2024-01-11T02:37:12;39.37;;;18.40;;
40052;SDS011;25758;48.200;16.338;2024-01-11T02:39:38;37.57;;;17.87;;
40052;SDS011;25758;48.200;16.338;2024-01-11T02:42:04;35.90;;;17.77;;
40052;SDS011;25758;48.200;16.338;2024-01-11T02:44:30;42.50;;;18.00;;
40052;SDS011;25758;48.200;16.338;2024-01-11T02:46:55;36.00;;;18.27;;
40052;SDS011;25758;48.200;16.338;2024-01-11T02:49:21;39.63;;;18.50;;
40052;SDS011;25758;48.200;16.338;2024-01-11T02:51:46;38.77;;;18.77;;
40052;SDS011;25758;48.200;16.338;2024-01-11T02:54:12;38.40;;;18.53;;
40052;SDS011;25758;48.200;16.338;2024-01-11T02:56:38;36.73;;;17.20;;
40052;SDS011;25758;48.200;16.338;2024-01-11T02:59:03;36.30;;;18.10;;
40052;SDS011;25758;48.200;16.338;2024-01-11T03:01:29;37.50;;;18.23;;
40052;SDS011;25758;48.200;16.338;2024-01-11T03:03:55;37.47;;;18.23;;
40052;SDS011;25758;48.200;16.338;2024-01-11T03:06:21;48.63;;;19.50;;
40052;SDS011;25758;48.200;16.338;2024-01-11T03:08:50;39.03;;;17.83;;
40052;SDS011;25758;48.200;16.338;2024-01-11T03:11:16;38.17;;;19.03;;
40052;SDS011;25758;48.200;16.338;2024-01-11T03:13:41;36.43;;;19.07;;
40052;SDS011;25758;48.200;16.338;2024-01-11T03:16:08;36.40;;;19.00;;
40052;SDS011;25758;48.200;16.338;2024-01-11T03:18:33;39.40;;;18.43;;
40052;SDS011;25758;48.200;16.338;2024-01-11T03:20:59;37.17;;;19.57;;
40052;SDS011;25758;48.200;16.338;2024-01-11T03:23:24;38.80;;;18.20;;
40052;SDS011;25758;48.200;16.338;2024-01-11T03:25:50;37.60;;;18.93;;
40052;SDS011;25758;48.200;16.338;2024-01-11T03:28:15;40.27;;;18.80;;
40052;SDS011;25758;48.200;16.338;2024-01-11T03:30:41;36.53;;;18.53;;
40052;SDS011;25758;48.200;16.338;2024-01-11T03:33:07;44.00;;;18.37;;
40052;SDS011;25758;48.200;16.338;2024-01-11T03:35:32;36.90;;;18.47;;
40052;SDS011;25758;48.200;16.338;2024-01-11T03:37:58;44.37;;;20.40;;
40052;SDS011;25758;48.200;16.338;2024-01-11T03:40:24;39.90;;;18.97;;
40052;SDS011;25758;48.200;16.338;2024-01-11T03:42:49;39.03;;;19.30;;
40052;SDS011;25758;48.200;16.338;2024-01-11T03:45:17;40.93;;;18.03;;
40052;SDS011;25758;48.200;16.338;2024-01-11T03:47:44;40.00;;;18.87;;
40052;SDS011;25758;48.200;16.338;2024-01-11T03:50:10;35.83;;;17.43;;
40052;SDS011;25758;48.200;16.338;2024-01-11T03:52:35;43.07;;;19.70;;
40052;SDS011;25758;48.200;16.338;2024-01-11T03:55:01;37.30;;;18.47;;
40052;SDS011;25758;48.200;16.338;2024-01-11T03:57:26;41.03;;;19.80;;
40052;SDS011;25758;48.200;16.338;2024-01-11T03:59:52;35.50;;;17.57;;
40052;SDS011;25758;48.200;16.338;2024-01-11T04:02:18;35.63;;;18.10;;
40052;SDS011;25758;48.200;16.338;2024-01-11T04:04:44;40.33;;;19.97;;
40052;SDS011;25758;48.200;16.338;2024-01-11T04:07:09;33.57;;;17.47;;
40052;SDS011;25758;48.200;16.338;2024-01-11T04:09:36;32.33;;;17.13;;
40052;SDS011;25758;48.200;16.338;2024-01-11T04:12:05;35.23;;;17.93;;
40052;SDS011;25758;48.200;16.338;2024-01-11T04:14:31;38.97;;;18.60;;
40052;SDS011;25758;48.200;16.338;2024-01-11T04:16:57;39.77;;;19.37;;
40052;SDS011;25758;48.200;16.338;2024-01-11T04:19:22;43.70;;;20.20;;
40052;SDS011;25758;48.200;16.338;2024-01-11T04:21:48;40.17;;;19.07;;
40052;SDS011;25758;48.200;16.338;2024-01-11T04:24:14;38.90;;;17.70;;
40052;SDS011;25758;48.200;16.338;2024-01-11T04:26:39;40.93;;;18.80;;
40052;SDS011;25758;48.200;16.338;2024-01-11T04:29:05;35.50;;;17.87;;
40052;SDS011;25758;48.200;16.338;2024-01-11T04:31:31;35.47;;;16.93;;
40052;SDS011;25758;48.200;16.338;2024-01-11T04:33:56;38.70;;;17.30;;
40052;SDS011;25758;48.200;16.338;2024-01-11T04:36:22;36.93;;;18.60;;
40052;SDS011;25758;48.200;16.338;2024-01-11T04:38:47;33.07;;;17.30;;
40052;SDS011;25758;48.200;16.338;2024-01-11T04:41:13;33.03;;;17.77;;
40052;SDS011;25758;48.200;16.338;2024-01-11T04:43:40;33.57;;;17.90;;
40052;SDS011;25758;48.200;16.338;2024-01-11T04:46:16;36.57;;;17.67;;
40052;SDS011;25758;48.200;16.338;2024-01-11T04:48:43;35.30;;;17.10;;
40052;SDS011;25758;48.200;16.338;2024-01-11T04:51:09;43.27;;;21.13;;
40052;SDS011;25758;48.200;16.338;2024-01-11T04:53:36;37.80;;;18.47;;
40052;SDS011;25758;48.200;16.338;2024-01-11T04:56:03;37.50;;;17.30;;
40052;SDS011;25758;48.200;16.338;2024-01-11T04:58:29;35.77;;;18.10;;
40052;SDS011;25758;48.200;16.338;2024-01-11T05:00:54;35.90;;;17.93;;
40052;SDS011;25758;48.200;16.338;2024-01-11T05:03:20;34.23;;;17.27;;
40052;SDS011;25758;48.200;16.338;2024-01-11T05:05:45;34.87;;;17.20;;
40052;SDS011;25758;48.200;16.338;2024-01-11T05:08:11;42.97;;;18.10;;
40052;SDS011;25758;48.200;16.338;2024-01-11T05:10:36;32.07;;;15.70;;
40052;SDS011;25758;48.200;16.338;2024-01-11T05:13:02;33.30;;;17.23;;
40052;SDS011;25758;48.200;16.338;2024-01-11T05:15:28;29.20;;;16.60;;
40052;SDS011;25758;48.200;16.338;2024-01-11T05:17:55;33.37;;;15.83;;
40052;SDS011;25758;48.200;16.338;2024-01-11T05:20:21;31.33;;;16.13;;
40052;SDS011;25758;48.200;16.338;2024-01-11T05:22:47;31.23;;;16.27;;
40052;SDS011;25758;48.200;16.338;2024-01-11T05:25:13;30.73;;;15.80;;
40052;SDS011;25758;48.200;16.338;2024-01-11T05:27:39;37.10;;;17.97;;
40052;SDS011;25758;48.200;16.338;2024-01-11T05:30:05;40.13;;;17.70;;
40052;SDS011;25758;48.200;16.338;2024-01-11T05:32:31;34.37;;;16.50;;
40052;SDS011;25758;48.200;16.338;2024-01-11T05:34:57;38.07;;;17.77;;
40052;SDS011;25758;48.200;16.338;2024-01-11T05:37:22;37.40;;;16.50;;
40052;SDS011;25758;48.200;16.338;2024-01-11T05:39:48;36.37;;;18.07;;
40052;SDS011;25758;48.200;16.338;2024-01-11T05:42:14;36.50;;;18.53;;
40052;SDS011;25758;48.200;16.338;2024-01-11T05:44:39;43.03;;;19.10;;
40052;SDS011;25758;48.200;16.338;2024-01-11T05:47:05;35.23;;;17.37;;
40052;SDS011;25758;48.200;16.338;2024-01-11T05:49:31;34.50;;;17.37;;
40052;SDS011;25758;48.200;16.338;2024-01-11T05:51:57;37.03;;;18.47;;
40052;SDS011;25758;48.200;16.338;2024-01-11T05:54:23;39.53;;;18.93;;
40052;SDS011;25758;48.200;16.338;2024-01-11T05:56:49;41.80;;;18.07;;
40052;SDS011;25758;48.200;16.338;2024-01-11T05:59:17;45.03;;;23.03;;
40052;SDS011;25758;48.200;16.338;2024-01-11T06:01:43;44.97;;;21.00;;
40052;SDS011;25758;48.200;16.338;2024-01-11T06:04:09;40.33;;;20.00;;
40052;SDS011;25758;48.200;16.338;2024-01-11T06:06:34;37.10;;;19.03;;
40052;SDS011;25758;48.200;16.338;2024-01-11T06:09:00;41.00;;;18.67;;
40052;SDS011;25758;48.200;16.338;2024-01-11T06:11:29;38.17;;;18.73;;
40052;SDS011;25758;48.200;16.338;2024-01-11T06:13:55;40.80;;;19.27;;
40052;SDS011;25758;48.200;16.338;2024-01-11T06:16:21;41.97;;;19.17;;
40052;SDS011;25758;48.200;16.338;2024-01-11T06:18:46;40.53;;;19.97;;
40052;SDS011;25758;48.200;16.338;2024-01-11T06:21:12;41.70;;;19.07;;
40052;SDS011;25758;48.200;16.338;2024-01-11T06:23:38;44.80;;;20.37;;
40052;SDS011;25758;48.200;16.338;2024-01-11T06:26:04;45.43;;;22.00;;
40052;SDS011;25758;48.200;16.338;2024-01-11T06:28:29;46.50;;;18.43;;
40052;SDS011;25758;48.200;16.338;2024-01-11T06:30:55;41.67;;;19.90;;
40052;SDS011;25758;48.200;16.338;2024-01-11T06:33:21;42.83;;;19.40;;
40052;SDS011;25758;48.200;16.338;2024-01-11T06:35:46;50.10;;;20.50;;
40052;SDS011;25758;48.200;16.338;2024-01-11T06:38:12;57.20;;;23.27;;
40052;SDS011;25758;48.200;16.338;2024-01-11T06:40:38;48.77;;;21.07;;
40052;SDS011;25758;48.200;16.338;2024-01-11T06:43:04;47.57;;;22.63;;
40052;SDS011;25758;48.200;16.338;2024-01-11T06:45:29;44.90;;;21.17;;
40052;SDS011;25758;48.200;16.338;2024-01-11T06:47:55;39.20;;;18.93;;
40052;SDS011;25758;48.200;16.338;2024-01-11T06:50:21;43.47;;;18.93;;
40052;SDS011;25758;48.200;16.338;2024-01-11T06:52:47;49.20;;;21.10;;
40052;SDS011;25758;48.200;16.338;2024-01-11T06:55:13;45.10;;;21.60;;
40052;SDS011;25758;48.200;16.338;2024-01-11T06:57:39;43.63;;;20.80;;
40052;SDS011;25758;48.200;16.338;2024-01-11T07:00:05;40.63;;;20.00;;
40052;SDS011;25758;48.200;16.338;2024-01-11T07:02:32;45.33;;;20.47;;
40052;SDS011;25758;48.200;16.338;2024-01-11T07:04:58;43.47;;;19.00;;
40052;SDS011;25758;48.200;16.338;2024-01-11T07:07:23;47.97;;;20.40;;
40052;SDS011;25758;48.200;16.338;2024-01-11T07:09:51;46.53;;;19.10;;
40052;SDS011;25758;48.200;16.338;2024-01-11T07:12:20;41.57;;;20.27;;
40052;SDS011;25758;48.200;16.338;2024-01-11T07:14:46;42.37;;;20.60;;
40052;SDS011;25758;48.200;16.338;2024-01-11T07:17:11;38.67;;;19.60;;
40052;SDS011;25758;48.200;16.338;2024-01-11T07:19:37;39.63;;;18.97;;
40052;SDS011;25758;48.200;16.338;2024-01-11T07:22:03;48.13;;;22.67;;
40052;SDS011;25758;48.200;16.338;2024-01-11T07:24:28;49.83;;;22.57;;
40052;SDS011;25758;48.200;16.338;2024-01-11T07:27:02;44.72;;;21.63;;
40052;SDS011;25758;48.200;16.338;2024-01-11T07:29:29;43.40;;;20.30;;
40052;SDS011;25758;48.200;16.338;2024-01-11T07:31:54;44.40;;;21.53;;
40052;SDS011;25758;48.200;16.338;2024-01-11T07:34:20;48.83;;;24.27;;
40052;SDS011;25758;48.200;16.338;2024-01-11T07:36:46;46.27;;;21.60;;
40052;SDS011;25758;48.200;16.338;2024-01-11T07:39:11;45.27;;;21.33;;
40052;SDS011;25758;48.200;16.338;2024-01-11T07:41:37;43.90;;;22.40;;
40052;SDS011;25758;48.200;16.338;2024-01-11T07:44:03;46.80;;;21.57;;
40052;SDS011;25758;48.200;16.338;2024-01-11T07:46:28;47.77;;;21.27;;
40052;SDS011;25758;48.200;16.338;2024-01-11T07:48:54;47.63;;;20.90;;
40052;SDS011;25758;48.200;16.338;2024-01-11T07:51:20;41.60;;;20.33;;
40052;SDS011;25758;48.200;16.338;2024-01-11T07:53:46;40.47;;;19.93;;
40052;SDS011;25758;48.200;16.338;2024-01-11T07:56:12;40.00;;;19.70;;
40052;SDS011;25758;48.200;16.338;2024-01-11T07:58:38;40.67;;;19.37;;
40052;SDS011;25758;48.200;16.338;2024-01-11T08:01:06;52.53;;;21.57;;
40052;SDS011;25758;48.200;16.338;2024-01-11T08:03:32;39.17;;;21.10;;
40052;SDS011;25758;48.200;16.338;2024-01-11T08:05:59;43.33;;;21.53;;
40052;SDS011;25758;48.200;16.338;2024-01-11T08:08:25;43.87;;;21.07;;
40052;SDS011;25758;48.200;16.338;2024-01-11T08:10:51;40.00;;;20.70;;
40052;SDS011;25758;48.200;16.338;2024-01-11T08:13:17;41.97;;;20.10;;
40052;SDS011;25758;48.200;16.338;2024-01-11T08:15:43;46.10;;;20.07;;
40052;SDS011;25758;48.200;16.338;2024-01-11T08:18:09;45.83;;;21.10;;
40052;SDS011;25758;48.200;16.338;2024-01-11T08:20:34;45.30;;;21.00;;
40052;SDS011;25758;48.200;16.338;2024-01-11T08:23:00;45.53;;;22.50;;
40052;SDS011;25758;48.200;16.338;2024-01-11T08:25:26;46.80;;;22.17;;
40052;SDS011;25758;48.200;16.338;2024-01-11T08:27:51;50.70;;;24.40;;
40052;SDS011;25758;48.200;16.338;2024-01-11T08:30:17;54.07;;;21.50;;
40052;SDS011;25758;48.200;16.338;2024-01-11T08:32:43;43.63;;;21.00;;
40052;SDS011;25758;48.200;16.338;2024-01-11T08:35:09;49.27;;;23.30;;
40052;SDS011;25758;48.200;16.338;2024-01-11T08:37:37;48.13;;;21.40;;
40052;SDS011;25758;48.200;16.338;2024-01-11T08:40:04;45.30;;;20.97;;
40052;SDS011;25758;48.200;16.338;2024-01-11T08:42:31;59.63;;;22.33;;
40052;SDS011;25758;48.200;16.338;2024-01-11T08:44:57;45.07;;;22.47;;
40052;SDS011;25758;48.200;16.338;2024-01-11T08:47:23;54.47;;;23.17;;
40052;SDS011;25758;48.200;16.338;2024-01-11T08:49:49;50.63;;;21.47;;
40052;SDS011;25758;48.200;16.338;2024-01-11T08:52:15;41.07;;;20.20;;
40052;SDS011;25758;48.200;16.338;2024-01-11T08:54:41;46.30;;;22.17;;
40052;SDS011;25758;48.200;16.338;2024-01-11T08:57:06;47.20;;;23.63;;
40052;SDS011;25758;48.200;16.338;2024-01-11T08:59:32;58.87;;;26.47;;
40052;SDS011;25758;48.200;16.338;2024-01-11T09:01:57;47.43;;;22.03;;
40052;SDS011;25758;48.200;16.338;2024-01-11T09:04:23;42.53;;;21.23;;
40052;SDS011;25758;48.200;16.338;2024-01-11T09:06:49;46.47;;;22.03;;
40052;SDS011;25758;48.200;16.338;2024-01-11T09:09:14;43.60;;;21.30;;
40052;SDS011;25758;48.200;16.338;2024-01-11T09:11:40;47.37;;;21.83;;
40052;SDS011;25758;48.200;16.338;2024-01-11T09:14:06;39.37;;;19.60;;
40052;SDS011;25758;48.200;16.338;2024-01-11T09:16:32;41.33;;;20.27;;
40052;SDS011;25758;48.200;16.338;2024-01-11T09:18:58;47.90;;;19.60;;
40052;SDS011;25758;48.200;16.338;2024-01-11T09:21:25;45.30;;;20.53;;
40052;SDS011;25758;48.200;16.338;2024-01-11T09:23:51;43.37;;;21.00;;
40052;SDS011;25758;48.200;16.338;2024-01-11T09:26:17;39.33;;;21.50;;
40052;SDS011;25758;48.200;16.338;2024-01-11T09:28:42;43.07;;;20.70;;
40052;SDS011;25758;48.200;16.338;2024-01-11T09:31:08;41.07;;;20.07;;
40052;SDS011;25758;48.200;16.338;2024-01-11T09:33:33;43.57;;;20.53;;
40052;SDS011;25758;48.200;16.338;2024-01-11T09:35:59;38.97;;;20.30;;
40052;SDS011;25758;48.200;16.338;2024-01-11T09:38:25;42.93;;;20.43;;
40052;SDS011;25758;48.200;16.338;2024-01-11T09:40:53;37.13;;;19.10;;
40052;SDS011;25758;48.200;16.338;2024-01-11T09:43:30;46.07;;;19.57;;
40052;SDS011;25758;48.200;16.338;2024-01-11T09:45:58;49.00;;;20.43;;
40052;SDS011;25758;48.200;16.338;2024-01-11T09:48:24;43.20;;;19.80;;
40052;SDS011;25758;48.200;16.338;2024-01-11T09:50:51;40.67;;;20.17;;
40052;SDS011;25758;48.200;16.338;2024-01-11T09:53:19;43.03;;;19.70;;
40052;SDS011;25758;48.200;16.338;2024-01-11T09:55:48;44.83;;;20.57;;
40052;SDS011;25758;48.200;16.338;2024-01-11T09:58:14;42.17;;;19.53;;
40052;SDS011;25758;48.200;16.338;2024-01-11T10:00:40;38.40;;;19.37;;
40052;SDS011;25758;48.200;16.338;2024-01-11T10:03:06;35.13;;;17.53;;
40052;SDS011;25758;48.200;16.338;2024-01-11T10:05:33;38.70;;;19.27;;
40052;SDS011;25758;48.200;16.338;2024-01-11T10:08:00;39.47;;;19.60;;
40052;SDS011;25758;48.200;16.338;2024-01-11T10:10:26;34.80;;;18.07;;
40052;SDS011;25758;48.200;16.338;2024-01-11T10:12:52;40.13;;;20.47;;
40052;SDS011;25758;48.200;16.338;2024-01-11T10:15:18;39.60;;;19.97;;
40052;SDS011;25758;48.200;16.338;2024-01-11T10:17:44;41.73;;;20.00;;
40052;SDS011;25758;48.200;16.338;2024-01-11T10:20:13;36.13;;;19.30;;
40052;SDS011;25758;48.200;16.338;2024-01-11T10:22:40;39.93;;;19.90;;
40052;SDS011;25758;48.200;16.338;2024-01-11T10:25:10;38.50;;;20.83;;
40052;SDS011;25758;48.200;16.338;2024-01-11T10:27:41;41.53;;;19.40;;
40052;SDS011;25758;48.200;16.338;2024-01-11T10:30:08;40.63;;;19.70;;
40052;SDS011;25758;48.200;16.338;2024-01-11T10:32:35;37.77;;;19.77;;
40052;SDS011;25758;48.200;16.338;2024-01-11T10:35:01;40.90;;;20.13;;
40052;SDS011;25758;48.200;16.338;2024-01-11T10:37:30;39.13;;;18.33;;
40052;SDS011;25758;48.200;16.338;2024-01-11T10:40:03;41.97;;;19.37;;
40052;SDS011;25758;48.200;16.338;2024-01-11T10:42:41;38.63;;;19.33;;
40052;SDS011;25758;48.200;16.338;2024-01-11T10:45:18;39.60;;;19.40;;
40052;SDS011;25758;48.200;16.338;2024-01-11T10:47:51;40.33;;;19.77;;
40052;SDS011;25758;48.200;16.338;2024-01-11T10:50:19;55.37;;;24.70;;
40052;SDS011;25758;48.200;16.338;2024-01-11T10:52:50;73.70;;;34.43;;
40052;SDS011;25758;48.200;16.338;2024-01-11T10:55:26;42.43;;;21.13;;
40052;SDS011;25758;48.200;16.338;2024-01-11T10:57:59;41.57;;;20.40;;
40052;SDS011;25758;48.200;16.338;2024-01-11T11:00:28;32.33;;;16.70;;
40052;SDS011;25758;48.200;16.338;2024-01-11T11:18:24;33.40;;;16.83;;
40052;SDS011;25758;48.200;16.338;2024-01-11T11:39:03;33.90;;;16.87;;
40052;SDS011;25758;48.200;16.338;2024-01-11T11:41:30;39.90;;;17.93;;
40052;SDS011;25758;48.200;16.338;2024-01-11T11:44:00;35.77;;;17.17;;
40052;SDS011;25758;48.200;16.338;2024-01-11T11:46:27;29.80;;;16.67;;
40052;SDS011;25758;48.200;16.338;2024-01-11T11:48:54;32.22;;;16.60;;
40052;SDS011;25758;48.200;16.338;2024-01-11T11:59:03;57.25;;;28.08;;
40052;SDS011;25758;48.200;16.338;2024-01-11T12:01:30;38.60;;;20.73;;
40052;SDS011;25758;48.200;16.338;2024-01-11T12:03:57;31.38;;;16.85;;
40052;SDS011;25758;48.200;16.338;2024-01-11T12:06:23;31.15;;;15.30;;
40052;SDS011;25758;48.200;16.338;2024-01-11T12:08:50;29.05;;;16.13;;
40052;SDS011;25758;48.200;16.338;2024-01-11T12:11:18;26.42;;;14.50;;
40052;SDS011;25758;48.200;16.338;2024-01-11T12:13:46;28.00;;;15.80;;
40052;SDS011;25758;48.200;16.338;2024-01-11T12:16:14;33.58;;;18.05;;
40052;SDS011;25758;48.200;16.338;2024-01-11T12:18:40;36.63;;;16.73;;
40052;SDS011;25758;48.200;16.338;2024-01-11T12:21:06;33.10;;;16.77;;
40052;SDS011;25758;48.200;16.338;2024-01-11T12:23:33;33.00;;;18.20;;
40052;SDS011;25758;48.200;16.338;2024-01-11T12:26:03;27.85;;;15.10;;
40052;SDS011;25758;48.200;16.338;2024-01-11T12:28:32;31.08;;;15.85;;
40052;SDS011;25758;48.200;16.338;2024-01-11T12:30:58;31.70;;;17.00;;
40052;SDS011;25758;48.200;16.338;2024-01-11T12:33:24;46.22;;;21.80;;
40052;SDS011;25758;48.200;16.338;2024-01-11T12:35:51;42.92;;;20.48;;
40052;SDS011;25758;48.200;16.338;2024-01-11T12:38:17;35.50;;;18.75;;
40052;SDS011;25758;48.200;16.338;2024-01-11T12:40:50;31.45;;;16.88;;
40052;SDS011;25758;48.200;16.338;2024-01-11T12:43:16;36.63;;;17.88;;
40052;SDS011;25758;48.200;16.338;2024-01-11T12:45:42;31.15;;;16.58;;
40052;SDS011;25758;48.200;16.338;2024-01-11T12:48:08;29.05;;;17.52;;
40052;SDS011;25758;48.200;16.338;2024-01-11T12:50:38;28.75;;;16.98;;
40052;SDS011;25758;48.200;16.338;2024-01-11T12:55:36;30.83;;;16.88;;
40052;SDS011;25758;48.200;16.338;2024-01-11T12:58:06;37.58;;;17.83;;
40052;SDS011;25758;48.200;16.338;2024-01-11T13:00:32;32.20;;;16.10;;
40052;SDS011;25758;48.200;16.338;2024-01-11T13:02:58;29.30;;;16.52;;
40052;SDS011;25758;48.200;16.338;2024-01-11T13:18:39;34.45;;;16.30;;
40052;SDS011;25758;48.200;16.338;2024-01-11T13:21:05;28.98;;;15.85;;
40052;SDS011;25758;48.200;16.338;2024-01-11T13:23:34;32.38;;;16.55;;
40052;SDS011;25758;48.200;16.338;2024-01-11T13:28:48;26.70;;;15.75;;
40052;SDS011;25758;48.200;16.338;2024-01-11T13:31:14;33.88;;;16.52;;
40052;SDS011;25758;48.200;16.338;2024-01-11T13:33:42;54.50;;;25.05;;
40052;SDS011;25758;48.200;16.338;2024-01-11T13:36:12;32.65;;;18.00;;
40052;SDS011;25758;48.200;16.338;2024-01-11T13:39:13;47.63;;;23.67;;
40052;SDS011;25758;48.200;16.338;2024-01-11T13:41:43;37.72;;;19.15;;
40052;SDS011;25758;48.200;16.338;2024-01-11T13:44:11;29.27;;;15.85;;
40052;SDS011;25758;48.200;16.338;2024-01-11T13:49:46;38.28;;;18.80;;
40052;SDS011;25758;48.200;16.338;2024-01-11T13:52:13;43.30;;;21.70;;
40052;SDS011;25758;48.200;16.338;2024-01-11T13:54:39;32.63;;;17.85;;
40052;SDS011;25758;48.200;16.338;2024-01-11T13:57:05;34.67;;;17.60;;
40052;SDS011;25758;48.200;16.338;2024-01-11T13:59:30;35.23;;;17.30;;
40052;SDS011;25758;48.200;16.338;2024-01-11T14:01:56;32.03;;;16.97;;
40052;SDS011;25758;48.200;16.338;2024-01-11T14:04:26;37.30;;;17.88;;
40052;SDS011;25758;48.200;16.338;2024-01-11T14:06:52;36.00;;;17.90;;
40052;SDS011;25758;48.200;16.338;2024-01-11T14:09:17;32.73;;;16.90;;
40052;SDS011;25758;48.200;16.338;2024-01-11T14:11:43;30.03;;;17.33;;
40052;SDS011;25758;48.200;16.338;2024-01-11T14:14:09;34.73;;;16.27;;
40052;SDS011;25758;48.200;16.338;2024-01-11T14:16:35;33.77;;;17.93;;
40052;SDS011;25758;48.200;16.338;2024-01-11T14:19:02;39.90;;;17.83;;
40052;SDS011;25758;48.200;16.338;2024-01-11T14:21:30;30.10;;;16.07;;
40052;SDS011;25758;48.200;16.338;2024-01-11T14:23:55;30.03;;;15.47;;
40052;SDS011;25758;48.200;16.338;2024-01-11T14:26:21;29.80;;;15.47;;
40052;SDS011;25758;48.200;16.338;2024-01-11T14:28:49;43.23;;;17.57;;
40052;SDS011;25758;48.200;16.338;2024-01-11T14:31:16;28.33;;;14.53;;
40052;SDS011;25758;48.200;16.338;2024-01-11T14:33:41;33.50;;;14.77;;
40052;SDS011;25758;48.200;16.338;2024-01-11T14:36:09;30.33;;;13.70;;
40052;SDS011;25758;48.200;16.338;2024-01-11T14:38:35;34.33;;;17.30;;
40052;SDS011;25758;48.200;16.338;2024-01-11T14:41:01;42.50;;;20.53;;
40052;SDS011;25758;48.200;16.338;2024-01-11T14:43:27;40.50;;;19.27;;
40052;SDS011;25758;48.200;16.338;2024-01-11T14:45:53;28.50;;;14.47;;
40052;SDS011;25758;48.200;16.338;2024-01-11T14:48:19;36.97;;;15.43;;
40052;SDS011;25758;48.200;16.338;2024-01-11T14:50:45;28.10;;;13.87;;
40052;SDS011;25758;48.200;16.338;2024-01-11T14:53:11;32.13;;;16.47;;
40052;SDS011;25758;48.200;16.338;2024-01-11T14:55:36;29.57;;;17.00;;
40052;SDS011;25758;48.200;16.338;2024-01-11T14:58:03;34.67;;;16.10;;
40052;SDS011;25758;48.200;16.338;2024-01-11T15:00:30;28.40;;;14.53;;
40052;SDS011;25758;48.200;16.338;2024-01-11T15:02:56;29.47;;;15.47;;
40052;SDS011;25758;48.200;16.338;2024-01-11T15:05:22;27.23;;;15.60;;
40052;SDS011;25758;48.200;16.338;2024-01-11T15:07:47;33.17;;;15.10;;